Time;durP1;ratioP1;P1;durP2;ratioP2;P2;SDS_P1;SDS_P2;PMS_P1;PMS_P2;Temp;Humidity;BMP_temperature;BMP_pressure;BME280_temperature;BME280_humidity;BME280_pressure;Samples;Min_cycle;Max_cycle;Signal;HPM_P1;HPM_P2
2023/03/21 00:01:27;;;;;;;;;19.00;13.50;;;;;15.04;52.63;101196.91;5083481;28;45269;-68
2023/03/21 00:03:52;;;;;;;;;14.00;13.00;;;;;14.98;52.54;101190.53;5079436;28;55243;-69
2023/03/21 00:06:18;;;;;;;;;16.00;12.00;;;;;15.03;52.41;101204.97;5074628;28;45326;-69
2023/03/21 00:08:43;;;;;;;;;16.50;15.50;;;;;15.00;52.55;101200.47;5081223;28;45217;-69
2023/03/21 00:11:10;;;;;;;;;19.00;13.00;;;;;14.84;52.39;101180.47;5073811;28;45584;-69
2023/03/21 00:13:41;;;;;;;;;16.75;13.75;;;;;14.95;52.81;101194.09;5078416;28;47142;-69
2023/03/21 00:16:14;;;;;;;;;16.00;11.67;;;;;14.98;52.56;101201.28;5077378;28;45489;-69
2023/03/21 00:18:41;;;;;;;;;15.25;13.50;;;;;14.96;52.42;101192.31;5076817;28;45584;-68
2023/03/21 00:21:07;;;;;;;;;15.25;12.75;;;;;14.93;52.40;101186.00;5087987;27;46119;-68
2023/03/21 00:23:33;;;;;;;;;18.25;12.75;;;;;14.95;52.86;101187.78;5077125;28;45596;-68
2023/03/21 00:25:59;;;;;;;;;12.75;12.75;;;;;14.95;52.75;101190.47;5075313;28;45821;-69
2023/03/21 00:28:26;;;;;;;;;21.25;18.00;;;;;14.93;53.03;101182.38;5076835;28;45086;-67
2023/03/21 00:30:57;;;;;;;;;14.75;13.25;;;;;14.84;53.53;101161.63;5078947;27;45876;-68
2023/03/21 00:33:22;;;;;;;;;21.25;20.50;;;;;14.85;53.85;101157.16;5079636;27;46492;-68
2023/03/21 00:35:50;;;;;;;;;57.00;42.75;;;;;14.71;54.10;101144.41;5077751;28;45524;-69
2023/03/21 00:38:17;;;;;;;;;37.00;30.50;;;;;14.94;54.32;101184.22;5078112;28;45608;-67
2023/03/21 00:40:42;;;;;;;;;67.00;51.25;;;;;14.93;54.05;101182.38;5077327;28;45311;-68
2023/03/21 00:43:07;;;;;;;;;44.25;35.50;;;;;14.89;53.56;101178.75;5084745;27;45203;-68
2023/03/21 00:45:33;;;;;;;;;62.00;49.75;;;;;14.88;53.96;101179.66;5079864;28;50118;-69
2023/03/21 00:47:58;;;;;;;;;53.25;43.50;;;;;14.77;53.57;101162.44;5076169;28;45111;-68
2023/03/21 00:50:24;;;;;;;;;31.75;25.75;;;;;14.82;53.53;101175.97;5078101;28;45148;-68
2023/03/21 00:52:50;;;;;;;;;22.75;17.50;;;;;14.76;53.28;101160.59;5078999;28;45448;-68
2023/03/21 00:55:18;;;;;;;;;17.00;13.75;;;;;14.82;53.58;101171.47;5071252;27;45606;-68
2023/03/21 00:57:44;;;;;;;;;18.50;16.00;;;;;14.77;53.75;101159.75;5063806;28;45305;-69
2023/03/21 01:00:12;;;;;;;;;13.75;11.50;;;;;14.81;53.74;101171.44;5079033;28;45115;-68
2023/03/21 01:02:55;;;;;;;;;16.50;16.00;;;;;14.77;53.55;101166.91;5083028;27;45727;-69
2023/03/21 01:08:14;;;;;;;;;13.50;13.25;;;;;14.68;53.89;101159.59;5081481;28;45082;-69
2023/03/21 01:10:41;;;;;;;;;16.00;12.00;;;;;14.64;53.61;101153.25;5085959;27;45017;-70
2023/03/21 01:13:08;;;;;;;;;19.50;11.75;;;;;14.69;53.73;101159.59;5079207;27;45766;-69
2023/03/21 01:15:34;;;;;;;;;15.25;13.00;;;;;14.64;53.43;101147.88;5073693;28;45255;-67
2023/03/21 01:18:00;;;;;;;;;13.50;13.00;;;;;14.64;53.70;101161.31;5082277;27;45166;-68
2023/03/21 01:20:26;;;;;;;;;13.00;12.00;;;;;14.63;53.41;101161.31;5062412;28;45453;-70
2023/03/21 01:22:51;;;;;;;;;16.25;14.75;;;;;14.51;52.89;101132.41;5069787;28;45368;-68
2023/03/21 01:25:17;;;;;;;;;13.67;7.67;;;;;14.60;52.86;101155.88;5078964;28;45238;-67
2023/03/21 01:27:43;;;;;;;;;14.33;12.00;;;;;14.59;52.95;101154.03;5081297;27;45228;-68
2023/03/21 01:30:09;;;;;;;;;13.25;13.25;;;;;14.56;52.63;101153.09;5074058;28;45602;-68
2023/03/21 01:32:35;;;;;;;;;11.25;10.00;;;;;14.53;52.92;101133.31;5079401;27;45536;-69
2023/03/21 01:35:00;;;;;;;;;15.00;12.00;;;;;14.57;52.98;101144.16;5085260;27;45113;-68
2023/03/21 01:37:25;;;;;;;;;12.50;8.75;;;;;14.51;52.36;101141.34;5066963;27;45318;-68
2023/03/21 01:39:51;;;;;;;;;11.00;9.00;;;;;14.41;52.04;101128.66;5068119;28;45409;-68
2023/03/21 01:42:17;;;;;;;;;12.00;11.33;;;;;14.50;52.12;101147.63;5075695;27;45353;-67
2023/03/21 01:44:58;;;;;;;;;13.00;10.00;;;;;14.45;52.58;101145.72;5083332;28;45299;-69
2023/03/21 01:47:24;;;;;;;;;13.50;12.25;;;;;14.30;52.47;101125.75;5072072;28;45413;-70
2023/03/21 01:49:53;;;;;;;;;17.25;13.50;;;;;14.22;52.55;101121.13;5079434;28;45426;-68
2023/03/21 01:52:37;;;;;;;;;13.75;11.25;;;;;14.30;52.86;101141.88;5071139;28;46242;-67
2023/03/21 01:55:10;;;;;;;;;14.00;11.25;;;;;14.33;52.43;101143.75;5079715;27;45384;-68
2023/03/21 01:57:41;;;;;;;;;14.00;9.00;;;;;14.19;52.75;101116.63;5071040;28;45091;-68
2023/03/21 02:00:11;;;;;;;;;15.00;13.00;;;;;14.30;52.56;101125.75;5070154;28;45350;-69
2023/03/21 02:02:49;;;;;;;;;9.25;7.25;;;;;14.34;52.12;101142.88;5069315;28;45406;-71
2023/03/21 02:05:16;;;;;;;;;10.50;10.50;;;;;14.32;52.05;101121.34;5069326;28;45506;-69
2023/03/21 02:07:42;;;;;;;;;11.75;11.75;;;;;14.33;51.88;101120.44;5066279;27;45782;-69
2023/03/21 02:10:11;;;;;;;;;13.75;12.00;;;;;14.36;51.81;101108.84;5069405;28;45416;-69
2023/03/21 02:12:37;;;;;;;;;12.33;10.67;;;;;14.31;51.69;101113.25;5072889;27;45655;-68
2023/03/21 02:15:04;;;;;;;;;12.00;10.75;;;;;14.32;51.90;101107.91;5065073;28;45658;-68
2023/03/21 02:17:53;;;;;;;;;8.75;7.25;;;;;14.36;51.58;101112.44;5072051;28;45502;-68
2023/03/21 02:20:37;;;;;;;;;11.67;8.67;;;;;14.38;51.18;101107.09;5072330;28;45287;-68
2023/03/21 02:23:51;;;;;;;;;10.00;7.00;;;;;14.36;51.04;101103.47;5077504;28;46632;-69
2023/03/21 02:26:54;;;;;;;;;10.67;9.67;;;;;14.21;50.92;101079.03;5078117;28;45143;-69
2023/03/21 02:29:37;;;;;;;;;7.00;7.00;;;;;14.30;51.14;101095.31;5077839;28;45163;-68
2023/03/21 02:32:21;;;;;;;;;9.67;8.67;;;;;14.31;50.92;101086.38;5077852;28;45300;-68
2023/03/21 02:35:24;;;;;;;;;7.00;7.00;;;;;14.32;50.46;101097.16;5080116;28;46318;-68
2023/03/21 02:38:07;;;;;;;;;10.00;8.33;;;;;14.29;50.53;101097.09;5081304;28;45439;-68
2023/03/21 02:40:39;;;;;;;;;6.00;5.50;;;;;14.29;50.33;101091.72;5075537;28;45420;-68
2023/03/21 02:43:17;;;;;;;;;10.33;9.67;;;;;14.32;50.21;101082.78;5076553;28;45574;-68
2023/03/21 02:46:08;;;;;;;;;7.67;7.67;;;;;14.26;49.43;101080.91;5076702;28;45402;-69
2023/03/21 02:48:38;;;;;;;;;7.67;6.00;;;;;14.20;49.90;101075.44;5080055;28;45535;-69
2023/03/21 02:51:06;;;;;;;;;7.75;7.75;;;;;14.14;49.50;101053.84;5086308;28;45241;-69
2023/03/21 02:53:38;;;;;;;;;6.00;5.00;;;;;14.18;49.18;101061.97;5072651;28;45407;-70
2023/03/21 02:56:09;;;;;;;;;8.00;8.00;;;;;14.21;49.79;101076.34;5069861;27;47531;-69
2023/03/21 02:58:38;;;;;;;;;5.67;5.67;;;;;14.19;49.48;101071.84;5072433;28;45519;-69
2023/03/21 03:01:05;;;;;;;;;8.33;7.67;;;;;14.21;49.14;101062.91;5064385;27;45399;-68
2023/03/21 03:03:31;;;;;;;;;7.33;6.00;;;;;14.11;49.01;101069.91;5054652;28;45624;-68
2023/03/21 03:06:00;;;;;;;;;8.33;7.00;;;;;14.10;49.38;101078.84;5058980;28;46105;-69
2023/03/21 03:08:44;;;;;;;;;5.33;5.00;;;;;14.09;48.96;101075.25;5066255;28;45279;-67
2023/03/21 03:11:28;;;;;;;;;5.00;5.00;;;;;13.96;49.13;101054.44;5070541;28;45450;-69
2023/03/21 03:14:04;;;;;;;;;6.33;5.33;;;;;14.06;49.00;101063.56;5069063;28;45361;-70
2023/03/21 03:16:53;;;;;;;;;7.00;3.00;;;;;14.04;49.28;101071.59;5067020;27;47437;-69
2023/03/21 03:19:32;;;;;;;;;7.67;6.00;;;;;14.03;48.80;101060.81;5067259;28;45480;-69
2023/03/21 03:22:05;;;;;;;;;5.67;5.33;;;;;14.05;49.22;101064.44;5062000;28;45839;-69
2023/03/21 03:24:40;;;;;;;;;7.00;5.67;;;;;14.04;48.48;101059.94;5067499;28;45394;-70
2023/03/21 03:27:14;;;;;;;;;8.67;6.33;;;;;13.99;48.69;101057.16;5069172;27;46089;-68
2023/03/21 03:29:42;;;;;;;;;5.33;4.33;;;;;13.96;48.72;101041.00;5062084;27;45478;-70
2023/03/21 03:32:20;;;;;;;;;7.00;5.33;;;;;14.06;48.23;101048.34;5068099;28;45416;-67
2023/03/21 03:34:55;;;;;;;;;7.00;5.00;;;;;14.05;48.21;101054.59;5062260;28;45410;-68
2023/03/21 03:37:25;;;;;;;;;6.67;5.00;;;;;13.83;47.98;101024.66;5064990;28;45788;-69
2023/03/21 03:40:04;;;;;;;;;4.33;4.33;;;;;13.99;47.99;101046.41;5076920;28;45518;-69
2023/03/21 03:42:42;;;;;;;;;6.00;4.00;;;;;13.98;47.82;101047.31;5060566;27;45452;-68
2023/03/21 03:45:09;;;;;;;;;2.33;2.33;;;;;13.97;48.55;101048.16;5073026;27;45455;-68
2023/03/21 03:47:41;;;;;;;;;8.33;5.00;;;;;13.94;48.29;101054.41;5072386;28;46374;-69
2023/03/21 03:50:10;;;;;;;;;11.00;5.00;;;;;13.97;48.24;101050.84;5063302;28;45362;-68
2023/03/21 03:52:41;;;;;;;;;8.67;7.00;;;;;13.98;48.00;101050.00;5067757;27;45488;-69
2023/03/21 03:55:10;;;;;;;;;4.67;4.67;;;;;13.97;47.97;101053.53;5069609;28;45488;-68
2023/03/21 03:57:36;;;;;;;;;5.67;5.33;;;;;13.96;47.93;101049.06;5068312;27;46131;-68
2023/03/21 04:00:07;;;;;;;;;5.33;5.33;;;;;13.93;47.93;101049.91;5081817;28;45413;-69
2023/03/21 04:02:33;;;;;;;;;6.00;6.00;;;;;13.85;48.67;101039.91;5092130;27;45000;-70
2023/03/21 04:04:58;;;;;;;;;5.67;4.33;;;;;13.88;48.58;101042.66;5092158;27;44997;-68
2023/03/21 04:07:24;;;;;;;;;8.75;8.25;;;;;13.89;48.96;101047.13;5078224;28;45629;-69
2023/03/21 04:09:49;;;;;;;;;8.33;7.00;;;;;13.88;49.00;101046.25;5074303;28;46196;-69
2023/03/21 04:12:14;;;;;;;;;8.00;7.00;;;;;13.83;48.33;101046.16;5081287;27;45098;-68
2023/03/21 04:14:40;;;;;;;;;6.33;6.33;;;;;13.77;48.92;101056.78;5084283;28;44906;-69
2023/03/21 04:17:05;;;;;;;;;8.00;5.00;;;;;13.74;48.92;101066.56;5082842;27;45365;-67
2023/03/21 04:19:31;;;;;;;;;5.00;5.00;;;;;13.60;49.59;101052.88;5078780;27;45005;-69
2023/03/21 04:21:56;;;;;;;;;6.00;6.00;;;;;13.67;48.96;101067.34;5085232;28;44972;-68
2023/03/21 04:24:22;;;;;;;;;6.00;5.00;;;;;13.57;49.59;101061.78;5078228;28;45368;-69
2023/03/21 04:26:47;;;;;;;;;6.00;5.00;;;;;13.64;49.63;101065.47;5075586;28;59155;-68
2023/03/21 04:29:12;;;;;;;;;7.33;6.00;;;;;13.57;49.57;101060.88;5085754;28;50650;-69
2023/03/21 04:31:40;;;;;;;;;6.00;5.00;;;;;13.58;49.54;101050.19;5077709;28;45353;-69
2023/03/21 04:34:08;;;;;;;;;7.50;6.00;;;;;13.60;48.85;101066.31;5086398;28;45747;-69
2023/03/21 04:36:37;;;;;;;;;4.00;4.00;;;;;13.60;48.54;101067.22;5072736;28;45797;-69
2023/03/21 04:39:10;;;;;;;;;9.00;4.00;;;;;13.58;49.08;101055.53;5076642;27;45170;-67
2023/03/21 04:41:37;;;;;;;;;7.33;6.00;;;;;13.62;48.87;101049.34;5078982;28;45298;-67
2023/03/21 04:44:03;;;;;;;;;7.00;4.00;;;;;13.66;49.12;101046.72;5078579;28;45020;-69
2023/03/21 04:46:28;;;;;;;;;10.00;10.00;;;;;13.56;49.91;101021.47;5075463;28;45135;-68
2023/03/21 04:48:53;;;;;;;;;8.00;8.00;;;;;13.64;49.98;101035.94;5074096;28;45102;-70
2023/03/21 04:51:19;;;;;;;;;10.00;7.00;;;;;13.71;50.87;101039.66;5081949;28;45478;-69
2023/03/21 04:53:45;;;;;;;;;7.67;5.00;;;;;13.73;50.64;101052.25;5084730;28;45522;-68
2023/03/21 04:56:11;;;;;;;;;6.00;5.00;;;;;13.69;50.73;101049.47;5084416;28;46258;-68
2023/03/21 04:58:39;;;;;;;;;8.67;4.00;;;;;13.68;50.65;101051.25;5076592;28;45407;-69
2023/03/21 05:01:05;;;;;;;;;7.00;6.00;;;;;13.67;51.24;101040.50;5079322;28;44901;-69
2023/03/21 05:03:33;;;;;;;;;4.67;3.67;;;;;13.70;51.50;101045.91;5076646;27;45183;-68
2023/03/21 05:06:01;;;;;;;;;11.00;8.00;;;;;13.69;51.63;101055.72;5088520;28;45151;-68
2023/03/21 05:08:27;;;;;;;;;5.67;5.67;;;;;13.69;51.86;101055.72;5077387;27;45297;-68
2023/03/21 05:10:52;;;;;;;;;6.67;5.67;;;;;13.66;51.73;101038.66;5084580;28;45633;-69
2023/03/21 05:13:18;;;;;;;;;10.67;6.67;;;;;13.70;51.44;101049.50;5082150;28;45026;-68
2023/03/21 05:15:43;;;;;;;;;7.67;6.00;;;;;13.65;51.98;101040.44;5077893;28;45425;-69
2023/03/21 05:18:12;;;;;;;;;5.33;5.33;;;;;13.69;51.29;101054.84;5081288;28;45786;-69
2023/03/21 05:20:41;;;;;;;;;6.00;5.00;;;;;13.71;51.33;101039.66;5079138;28;45254;-68
2023/03/21 05:23:09;;;;;;;;;11.33;7.00;;;;;13.72;51.42;101039.69;5084036;28;45091;-68
2023/03/21 05:25:36;;;;;;;;;7.00;5.00;;;;;13.70;51.66;101035.19;5077970;28;45985;-68
2023/03/21 05:28:03;;;;;;;;;7.00;5.33;;;;;13.66;51.97;101028.84;5080904;28;45198;-68
2023/03/21 05:30:29;;;;;;;;;10.00;7.00;;;;;13.65;51.87;101032.41;5075082;28;45061;-67
2023/03/21 05:32:55;;;;;;;;;4.33;3.33;;;;;13.68;51.82;101036.91;5074894;28;45650;-68
2023/03/21 05:35:21;;;;;;;;;5.33;5.33;;;;;13.66;51.62;101035.97;5073822;28;47276;-69
2023/03/21 05:37:46;;;;;;;;;7.67;6.33;;;;;13.66;51.97;101023.47;5079318;28;45396;-68
2023/03/21 05:40:12;;;;;;;;;8.33;7.00;;;;;13.70;52.59;101025.31;5068935;28;45488;-69
2023/03/21 05:42:37;;;;;;;;;7.00;7.00;;;;;13.66;52.60;101019.88;5078856;27;45459;-67
2023/03/21 05:45:03;;;;;;;;;7.00;5.33;;;;;13.68;53.02;101026.16;5077404;27;45712;-69
2023/03/21 05:47:28;;;;;;;;;10.00;9.00;;;;;13.52;52.56;101004.41;5083911;28;45284;-70
2023/03/21 05:49:53;;;;;;;;;4.33;4.00;;;;;13.68;52.76;101031.53;5080378;28;45183;-68
2023/03/21 05:52:19;;;;;;;;;6.67;5.67;;;;;13.69;53.47;101038.72;5065536;28;45455;-68
2023/03/21 05:54:44;;;;;;;;;6.33;4.33;;;;;13.67;53.89;101036.00;5059002;27;46075;-68
2023/03/21 05:57:10;;;;;;;;;7.00;5.33;;;;;13.54;53.42;101016.06;5070535;28;45388;-68
2023/03/21 05:59:36;;;;;;;;;9.00;6.33;;;;;13.53;52.96;101018.72;5075312;27;45222;-69
2023/03/21 06:02:01;;;;;;;;;6.33;6.00;;;;;13.59;54.22;101033.16;5076272;27;45451;-68
2023/03/21 06:04:26;;;;;;;;;10.33;8.00;;;;;13.59;54.37;101040.34;5075130;28;45929;-68
2023/03/21 06:06:52;;;;;;;;;6.50;6.50;;;;;13.51;53.28;101028.53;5079288;28;45250;-70
2023/03/21 06:09:19;;;;;;;;;10.75;9.25;;;;;13.42;54.23;101007.81;5088259;28;45259;-69
2023/03/21 06:11:47;;;;;;;;;8.50;8.50;;;;;13.54;54.57;101031.28;5096076;27;45165;-70
2023/03/21 06:14:13;;;;;;;;;7.25;6.00;;;;;13.46;53.79;101023.09;5084995;28;46096;-70
2023/03/21 06:16:38;;;;;;;;;5.75;5.00;;;;;13.57;53.50;101042.09;5085188;28;45153;-69
2023/03/21 06:19:04;;;;;;;;;16.00;13.50;;;;;13.54;54.75;101047.41;5083502;27;45215;-69
2023/03/21 06:21:29;;;;;;;;;10.00;10.00;;;;;13.45;54.40;101029.34;5082201;28;45497;-68
2023/03/21 06:23:54;;;;;;;;;11.75;10.25;;;;;13.45;54.34;101021.28;5082731;27;47995;-68
2023/03/21 06:26:21;;;;;;;;;12.50;11.00;;;;;13.49;54.91;101050.00;5080500;28;45417;-68
2023/03/21 06:28:48;;;;;;;;;9.50;7.00;;;;;13.50;54.54;101051.81;5087525;28;45199;-68
2023/03/21 06:31:14;;;;;;;;;9.67;8.33;;;;;13.47;54.49;101056.22;5079599;27;45207;-70
2023/03/21 06:33:39;;;;;;;;;9.25;6.00;;;;;13.45;53.91;101050.81;5081602;27;45044;-67
2023/03/21 06:36:05;;;;;;;;;5.25;4.50;;;;;13.39;54.46;101043.53;5086943;28;45186;-69
2023/03/21 06:38:31;;;;;;;;;5.75;5.25;;;;;13.29;54.56;101020.06;5074564;28;45132;-68
2023/03/21 06:40:56;;;;;;;;;9.33;7.33;;;;;13.34;53.99;101047.91;5089196;28;45885;-69
2023/03/21 06:43:22;;;;;;;;;7.75;7.00;;;;;13.35;54.62;101044.38;5071561;27;46127;-68
2023/03/21 06:45:47;;;;;;;;;9.25;7.50;;;;;13.33;54.81;101034.47;5065172;28;45545;-68
2023/03/21 06:48:13;;;;;;;;;13.25;13.25;;;;;13.25;55.13;101015.50;5069075;27;45223;-69
2023/03/21 06:50:38;;;;;;;;;10.00;8.50;;;;;13.33;54.65;101034.47;5072569;28;45626;-69
2023/03/21 06:53:04;;;;;;;;;8.00;7.50;;;;;13.20;55.81;101010.06;5060324;28;46209;-70
2023/03/21 06:55:30;;;;;;;;;12.00;11.00;;;;;13.37;55.26;101025.63;5069509;28;45461;-67
2023/03/21 06:57:56;;;;;;;;;9.75;8.75;;;;;13.41;54.85;101019.41;5077426;28;45463;-68
2023/03/21 07:00:23;;;;;;;;;11.25;11.00;;;;;13.42;54.82;101014.06;5077201;27;45548;-68
2023/03/21 07:02:48;;;;;;;;;11.50;10.50;;;;;13.36;54.79;101010.38;5063764;28;45717;-68
2023/03/21 07:05:15;;;;;;;;;13.50;10.25;;;;;13.31;54.80;101018.28;5078372;28;45645;-67
2023/03/21 07:07:41;;;;;;;;;10.00;8.00;;;;;13.35;54.61;101027.38;5083912;27;45529;-69
2023/03/21 07:10:07;;;;;;;;;13.25;9.50;;;;;13.38;54.63;101006.84;5074680;28;45365;-69
2023/03/21 07:12:34;;;;;;;;;14.50;13.50;;;;;13.44;55.20;101006.94;5062742;27;46405;-69
2023/03/21 07:15:03;;;;;;;;;13.00;10.25;;;;;13.48;54.64;101017.75;5070693;28;45460;-71
2023/03/21 07:17:29;;;;;;;;;11.00;10.75;;;;;13.46;54.34;101001.59;5075514;27;45339;-68
2023/03/21 07:19:54;;;;;;;;;13.50;13.25;;;;;13.51;54.01;101016.03;5072266;27;45483;-69
2023/03/21 07:22:20;;;;;;;;;8.00;7.75;;;;;13.56;54.69;101002.69;5063973;28;47035;-69
2023/03/21 07:24:47;;;;;;;;;8.00;7.00;;;;;13.58;53.67;100998.28;5063553;28;45512;-69
2023/03/21 07:27:13;;;;;;;;;13.50;8.75;;;;;13.59;54.05;100997.38;5080296;28;45385;-70
2023/03/21 07:29:39;;;;;;;;;12.00;10.75;;;;;13.63;54.32;101013.56;5077880;28;45122;-70
2023/03/21 07:32:05;;;;;;;;;10.75;10.75;;;;;13.58;54.29;101011.69;5083213;28;47616;-68
2023/03/21 07:34:32;;;;;;;;;11.75;11.00;;;;;13.62;54.41;101017.13;5089816;27;45283;-70
2023/03/21 07:36:57;;;;;;;;;11.00;10.00;;;;;13.63;54.44;101020.72;5093478;27;44949;-69
2023/03/21 07:39:23;;;;;;;;;9.00;9.00;;;;;13.63;54.17;101021.63;5090660;28;45452;-72
2023/03/21 07:41:48;;;;;;;;;14.25;11.00;;;;;13.60;54.24;101008.16;5083902;27;45511;-68
2023/03/21 07:44:14;;;;;;;;;14.00;14.00;;;;;13.66;54.85;100993.94;5081907;27;45319;-70
2023/03/21 07:46:40;;;;;;;;;9.25;9.25;;;;;13.65;54.81;100992.13;5081245;27;45415;-69
2023/03/21 07:49:05;;;;;;;;;12.50;11.00;;;;;13.69;54.49;100993.06;5077068;28;45449;-69
2023/03/21 07:51:30;;;;;;;;;15.50;12.75;;;;;13.74;54.38;100992.31;5056579;27;45996;-69
2023/03/21 07:53:56;;;;;;;;;12.75;11.75;;;;;13.74;54.03;100959.16;5063073;28;45538;-71
2023/03/21 07:56:21;;;;;;;;;13.75;11.00;;;;;13.87;54.05;100955.78;5075709;27;45384;-68
2023/03/21 07:58:47;;;;;;;;;11.00;9.25;;;;;13.85;53.82;100936.06;5066676;27;45591;-71
2023/03/21 08:01:12;;;;;;;;;10.00;10.00;;;;;13.68;53.47;100906.28;5070694;27;45331;-69
2023/03/21 08:03:38;;;;;;;;;13.00;9.75;;;;;13.94;53.73;100948.72;5058721;27;45386;-69
2023/03/21 08:06:03;;;;;;;;;19.25;12.00;;;;;13.98;53.49;100964.03;5065711;27;45521;-70
2023/03/21 08:08:29;;;;;;;;;12.75;10.25;;;;;13.92;53.20;100953.19;5060838;28;45577;-69
2023/03/21 08:10:54;;;;;;;;;16.00;14.50;;;;;13.90;53.30;100971.06;5061588;28;45569;-69
2023/03/21 08:13:20;;;;;;;;;11.50;10.00;;;;;13.89;53.48;100988.97;5072966;28;45597;-69
2023/03/21 08:15:45;;;;;;;;;12.25;11.00;;;;;13.79;54.15;100979.84;5074506;28;45310;-70
2023/03/21 08:18:11;;;;;;;;;11.75;11.25;;;;;13.89;54.01;101018.50;5064005;27;45358;-69
2023/03/21 08:20:38;;;;;;;;;17.25;12.00;;;;;13.91;53.73;101029.25;5066390;28;46174;-69
2023/03/21 08:23:03;;;;;;;;;12.50;11.50;;;;;13.86;53.94;101030.97;5081851;28;45421;-68
2023/03/21 08:25:29;;;;;;;;;15.75;11.50;;;;;13.87;54.21;101055.16;5080504;28;46481;-70
2023/03/21 08:27:55;;;;;;;;;12.00;8.50;;;;;13.85;54.49;101024.69;5087598;27;45154;-69
2023/03/21 08:30:24;;;;;;;;;12.25;10.75;;;;;13.71;54.23;101007.44;5091183;27;45331;-69
2023/03/21 08:32:50;;;;;;;;;14.50;14.25;;;;;13.85;54.38;101040.81;5073641;27;46015;-69
2023/03/21 08:35:17;;;;;;;;;13.75;11.50;;;;;13.83;54.38;101030.03;5074830;28;45404;-68
2023/03/21 08:37:43;;;;;;;;;10.50;10.25;;;;;13.70;54.46;101003.84;5063606;27;45780;-69
2023/03/21 08:40:15;;;;;;;;;15.25;15.00;;;;;13.80;55.04;101011.19;5072779;27;46013;-68
2023/03/21 08:42:41;;;;;;;;;16.75;13.75;;;;;13.83;55.11;100995.13;5071430;27;45402;-69
2023/03/21 08:45:07;;;;;;;;;20.00;18.00;;;;;13.97;54.64;100992.69;5068742;28;45449;-68
2023/03/21 08:47:32;;;;;;;;;18.00;14.50;;;;;14.11;54.39;100987.53;5069889;27;45461;-67
2023/03/21 08:49:58;;;;;;;;;15.00;10.75;;;;;14.17;54.41;101009.13;5086012;28;45156;-68
2023/03/21 08:52:24;;;;;;;;;16.00;13.00;;;;;14.21;54.40;101019.94;5068261;28;45538;-68
2023/03/21 08:54:50;;;;;;;;;13.50;12.50;;;;;14.27;53.87;101020.91;5071877;28;45401;-69
2023/03/21 08:57:16;;;;;;;;;13.75;11.75;;;;;14.29;53.33;101016.47;5074025;28;45277;-69
2023/03/21 08:59:41;;;;;;;;;15.75;13.50;;;;;14.28;53.98;100993.16;5073392;27;46189;-69
2023/03/21 09:02:07;;;;;;;;;16.25;11.75;;;;;14.40;53.40;101003.16;5073151;27;45463;-68
2023/03/21 09:04:32;;;;;;;;;13.25;12.00;;;;;14.38;53.23;100986.13;5073996;27;45379;-69
2023/03/21 09:07:00;;;;;;;;;14.00;12.25;;;;;14.56;53.36;101020.44;5068043;28;45673;-69
2023/03/21 09:09:28;;;;;;;;;11.00;10.00;;;;;14.65;53.00;101030.44;5067144;28;45565;-69
2023/03/21 09:11:54;;;;;;;;;12.00;9.67;;;;;14.71;52.69;101020.69;5058217;28;45581;-69
2023/03/21 09:14:19;;;;;;;;;11.00;8.33;;;;;14.43;53.02;100962.91;5065769;27;45104;-69
2023/03/21 09:16:44;;;;;;;;;8.00;4.33;;;;;14.81;52.48;101034.25;5073201;28;45529;-68
2023/03/21 09:19:11;;;;;;;;;10.00;9.00;;;;;14.61;52.77;100994.56;5073553;27;46314;-69
2023/03/21 09:21:39;;;;;;;;;11.33;8.00;;;;;14.80;52.51;101030.69;5073034;27;45467;-69
2023/03/21 09:24:05;;;;;;;;;14.33;12.33;;;;;14.81;52.73;101032.47;5071787;27;45392;-69
2023/03/21 09:26:32;;;;;;;;;13.00;11.33;;;;;14.77;52.92;101027.94;5057588;28;45490;-69
2023/03/21 09:28:59;;;;;;;;;10.67;9.00;;;;;14.78;52.93;101028.84;5066599;28;45366;-68
2023/03/21 09:31:27;;;;;;;;;9.67;6.67;;;;;14.81;52.67;101027.09;5073252;27;45433;-68
2023/03/21 09:33:52;;;;;;;;;12.00;8.00;;;;;14.82;52.35;101033.41;5073223;27;45517;-70
2023/03/21 09:36:19;;;;;;;;;8.00;5.00;;;;;14.78;52.54;101021.66;5073225;27;45494;-69
2023/03/21 09:38:46;;;;;;;;;11.33;10.00;;;;;14.81;52.85;101031.56;5072686;27;45492;-69
2023/03/21 09:41:27;;;;;;;;;7.67;6.67;;;;;14.77;53.12;101027.94;5076185;27;45333;-70
2023/03/21 09:44:18;;;;;;;;;9.67;8.00;;;;;14.81;53.19;101027.09;5070548;27;45535;-70
2023/03/21 09:46:54;;;;;;;;;7.67;7.67;;;;;14.74;53.41;101015.34;5073154;27;45520;-68
2023/03/21 09:49:42;;;;;;;;;8.00;7.67;;;;;14.86;53.33;101040.59;5060952;28;45615;-69
2023/03/21 09:52:38;;;;;;;;;7.33;7.33;;;;;14.88;53.54;101033.44;5062628;28;45471;-69
2023/03/21 09:55:17;;;;;;;;;10.33;7.33;;;;;14.90;53.26;101029.91;5033794;28;45405;-70
2023/03/21 09:57:46;;;;;;;;;8.00;8.00;;;;;14.80;53.48;101011.84;5067546;27;45467;-70
2023/03/21 10:00:19;;;;;;;;;11.67;10.00;;;;;14.93;53.04;101031.72;5070633;27;47140;-70
2023/03/21 10:02:50;;;;;;;;;9.33;8.00;;;;;14.96;53.02;101026.38;5072587;27;45389;-71
2023/03/21 10:05:20;;;;;;;;;18.75;8.50;;;;;14.98;53.36;101035.41;5072943;27;45504;-69
2023/03/21 10:07:53;;;;;;;;;7.33;7.00;;;;;15.01;53.37;101029.13;5060413;27;45474;-69
2023/03/21 10:10:26;;;;;;;;;7.00;7.00;;;;;15.06;53.30;101028.34;5060599;28;45413;-70
2023/03/21 10:12:53;;;;;;;;;9.33;6.00;;;;;15.11;53.47;101031.06;5068934;28;45508;-69
2023/03/21 10:15:21;;;;;;;;;6.67;5.67;;;;;15.12;52.98;101005.97;5065063;28;45603;-72
2023/03/21 10:17:57;;;;;;;;;10.67;9.00;;;;;15.21;52.64;101005.16;5068183;28;45436;-70
2023/03/21 10:20:26;;;;;;;;;8.00;8.00;;;;;15.44;52.47;101037.72;5072833;27;46365;-70
2023/03/21 10:22:54;;;;;;;;;10.33;8.00;;;;;15.37;52.62;101017.91;5070962;28;45437;-68
2023/03/21 10:25:31;;;;;;;;;9.33;6.00;;;;;15.50;51.99;101028.81;5073042;27;45538;-70
2023/03/21 10:27:59;;;;;;;;;11.33;8.33;;;;;15.52;52.23;101040.50;5072887;28;45599;-70
2023/03/21 10:30:25;;;;;;;;;8.00;7.00;;;;;15.56;52.21;101036.94;5072908;27;46286;-70
2023/03/21 10:32:50;;;;;;;;;9.00;8.00;;;;;15.58;52.49;101040.59;5069530;28;45342;-69
2023/03/21 10:35:17;;;;;;;;;7.33;6.00;;;;;15.61;52.17;101038.81;5072471;27;45520;-69
2023/03/21 10:37:43;;;;;;;;;5.00;4.67;;;;;15.67;52.16;101029.88;5072512;27;45336;-67
2023/03/21 10:40:15;;;;;;;;;6.33;6.33;;;;;15.70;52.20;101027.22;5072733;27;45626;-69
2023/03/21 10:42:41;;;;;;;;;8.33;7.00;;;;;15.75;52.29;101013.81;5060425;28;45516;-67
2023/03/21 10:45:15;;;;;;;;;13.33;12.00;;;;;15.88;52.19;101018.44;5069687;27;45404;-70
2023/03/21 10:47:41;;;;;;;;;7.33;6.00;;;;;15.87;51.80;101005.84;5064896;28;45533;-69
2023/03/21 10:50:14;;;;;;;;;10.67;6.00;;;;;15.94;51.74;101007.72;5071762;28;45443;-71
2023/03/21 10:52:52;;;;;;;;;8.67;5.67;;;;;16.10;51.75;101018.63;5066266;28;45413;-70
2023/03/21 10:55:20;;;;;;;;;10.67;8.33;;;;;16.23;51.56;101012.44;5064216;28;45329;-70
2023/03/21 10:57:47;;;;;;;;;5.33;5.33;;;;;16.29;51.66;101017.00;5066772;28;45360;-70
2023/03/21 11:00:26;;;;;;;;;5.67;5.00;;;;;16.20;51.77;100996.22;5075182;27;45510;-70
2023/03/21 11:02:53;;;;;;;;;5.00;5.00;;;;;16.37;51.65;101016.13;5074041;27;45485;-69
2023/03/21 11:05:26;;;;;;;;;10.00;9.33;;;;;16.38;51.90;101012.56;5062400;27;45753;-69
2023/03/21 11:08:02;;;;;;;;;21.00;20.75;;;;;16.51;51.62;101023.41;5075846;27;45570;-69
2023/03/21 11:10:31;;;;;;;;;14.00;11.33;;;;;16.58;51.44;101019.84;5075016;27;46320;-69
2023/03/21 11:13:00;;;;;;;;;12.33;9.00;;;;;16.57;51.46;101018.97;5075120;28;45597;-69
2023/03/21 11:15:32;;;;;;;;;4.33;3.67;;;;;16.64;51.06;101021.69;5075268;27;45392;-71
2023/03/21 11:17:59;;;;;;;;;3.33;3.33;;;;;16.64;51.34;101010.91;5075398;27;45467;-69
2023/03/21 11:20:30;;;;;;;;;4.67;4.67;;;;;16.70;51.50;101009.16;5070388;28;45680;-70
2023/03/21 11:22:56;;;;;;;;;7.33;5.00;;;;;16.62;51.33;100989.31;5074595;28;45684;-68
2023/03/21 11:25:44;;;;;;;;;6.00;6.00;;;;;16.56;51.63;101001.00;5073736;28;45534;-69
2023/03/21 11:28:18;;;;;;;;;8.00;6.33;;;;;16.64;51.86;101017.19;5063812;28;45472;-68